Time;durP1;ratioP1;P1;durP2;ratioP2;P2;SDS_P1;SDS_P2;PMS_P1;PMS_P2;Temp;Humidity;BMP_temperature;BMP_pressure;BME280_temperature;BME280_humidity;BME280_pressure;Samples;Min_cycle;Max_cycle;Signal;HPM_P1;HPM_P2
2022/09/09 00:02:20;;;;;;;9.00;7.53;;;;;;;20.21;79.50;94886.25;4993669;28;20411;-78
2022/09/09 00:04:59;;;;;;;7.73;6.93;;;;;;;20.22;79.55;94885.25;4993165;28;20255;-78
2022/09/09 00:07:38;;;;;;;8.03;7.33;;;;;;;20.08;79.63;94861.97;4993390;28;20280;-78
2022/09/09 00:10:17;;;;;;;13.17;7.70;;;;;;;20.24;79.57;94885.03;4993549;28;20201;-77
2022/09/09 00:12:55;;;;;;;7.60;6.90;;;;;;;20.00;79.92;94849.97;4993537;28;20549;-79
2022/09/09 00:15:27;;;;;;;8.60;6.97;;;;;;;20.17;80.23;94885.00;4993242;28;20323;-79
2022/09/09 00:17:57;;;;;;;7.20;6.53;;;;;;;20.06;80.23;94869.97;4993442;28;20189;-78
2022/09/09 00:20:30;;;;;;;8.20;7.40;;;;;;;20.02;80.25;94866.94;4992950;28;20185;-80
2022/09/09 00:23:06;;;;;;;8.83;7.80;;;;;;;19.95;80.29;94841.97;4993206;28;20197;-78
2022/09/09 00:25:38;;;;;;;8.03;7.23;;;;;;;19.99;80.42;94851.78;4992679;28;20653;-77
2022/09/09 00:28:18;;;;;;;8.60;7.53;;;;;;;20.01;80.91;94857.56;4993010;28;20691;-78
2022/09/09 00:30:48;;;;;;;9.33;7.23;;;;;;;19.93;80.97;94852.53;4992670;28;20201;-79
2022/09/09 00:33:18;;;;;;;8.00;7.30;;;;;;;19.94;81.02;94843.72;4992558;28;20232;-78
2022/09/09 00:35:48;;;;;;;8.17;7.27;;;;;;;20.00;80.65;94842.19;4992915;28;20193;-79
2022/09/09 00:38:17;;;;;;;12.97;7.77;;;;;;;19.95;80.70;94839.38;4992746;28;20189;-78
2022/09/09 00:40:50;;;;;;;12.03;7.70;;;;;;;19.93;81.47;94839.53;4992345;28;20745;-77
2022/09/09 00:43:29;;;;;;;13.33;7.93;;;;;;;19.95;81.17;94836.78;4992555;28;20193;-79
2022/09/09 00:46:34;;;;;;;11.20;7.03;;;;;;;19.91;81.65;94838.16;4993060;28;20192;-78
2022/09/09 00:49:10;;;;;;;9.13;8.33;;;;;;;19.91;81.86;94843.34;4992980;28;20204;-77
2022/09/09 00:51:50;;;;;;;8.77;7.87;;;;;;;19.90;82.20;94844.31;4992229;28;20189;-79
2022/09/09 00:54:32;;;;;;;13.50;7.80;;;;;;;19.88;81.72;94841.13;4992276;28;20688;-79
2022/09/09 00:57:11;;;;;;;8.87;7.43;;;;;;;19.63;82.55;94804.44;4992074;28;20193;-78
2022/09/09 00:59:47;;;;;;;8.77;7.87;;;;;;;19.85;82.45;94844.88;4992211;28;20672;-79
2022/09/09 01:02:25;;;;;;;12.63;7.83;;;;;;;19.84;82.35;94847.69;4992016;28;20197;-79
2022/09/09 01:04:52;;;;;;;9.07;7.20;;;;;;;19.60;82.66;94818.53;4992188;28;20208;-78
2022/09/09 01:07:20;;;;;;;9.03;7.67;;;;;;;19.73;82.38;94838.63;4991835;28;20197;-78
2022/09/09 01:09:55;;;;;;;9.23;7.60;;;;;;;19.75;82.76;94845.22;4992062;28;20204;-78
2022/09/09 01:12:31;;;;;;;9.90;8.13;;;;;;;19.74;82.81;94846.22;4991235;28;20200;-80
2022/09/09 01:15:09;;;;;;;9.13;7.10;;;;;;;19.68;82.65;94835.78;4991558;28;20243;-78
2022/09/09 01:17:47;;;;;;;9.83;8.10;;;;;;;19.73;82.41;94846.41;4991772;28;20231;-79
2022/09/09 01:20:19;;;;;;;8.23;7.30;;;;;;;19.68;82.85;94836.59;4991372;28;20659;-79
2022/09/09 01:23:05;;;;;;;8.73;7.83;;;;;;;19.39;82.95;94801.28;4992010;28;20197;-78
2022/09/09 01:26:09;;;;;;;11.20;7.50;;;;;;;19.62;82.84;94836.56;4991635;28;20695;-78
2022/09/09 01:28:37;;;;;;;8.93;8.13;;;;;;;19.47;83.30;94816.69;4991443;28;20196;-79
2022/09/09 01:31:07;;;;;;;9.87;6.90;;;;;;;19.54;82.71;94827.09;4991825;28;20284;-78
2022/09/09 01:33:34;;;;;;;9.13;8.23;;;;;;;19.64;82.63;94848.34;4991575;28;20217;-80
2022/09/09 01:36:06;;;;;;;8.63;7.53;;;;;;;19.62;83.11;94847.75;4992393;28;20204;-80
2022/09/09 01:38:34;;;;;;;8.37;7.23;;;;;;;19.69;82.42;94847.78;4991664;28;20197;-79
2022/09/09 01:41:01;;;;;;;7.90;7.10;;;;;;;19.41;82.42;94808.84;4991701;28;20189;-78
2022/09/09 01:43:30;;;;;;;10.03;8.20;;;;;;;19.59;82.74;94852.47;4991905;28;20189;-77
2022/09/09 01:46:01;;;;;;;10.80;8.07;;;;;;;19.53;83.03;94852.25;4991621;28;20200;-78
2022/09/09 01:48:36;;;;;;;8.13;7.40;;;;;;;19.41;82.66;94835.59;4992112;28;20197;-80
2022/09/09 01:51:03;;;;;;;7.60;6.90;;;;;;;19.49;83.15;94856.22;4975106;28;20197;-78
2022/09/09 01:53:30;;;;;;;9.10;7.63;;;;;;;19.37;83.32;94849.94;4991682;28;20185;-78
2022/09/09 01:56:10;;;;;;;8.00;7.27;;;;;;;19.43;83.33;94867.34;4992700;28;20189;-79
2022/09/09 01:58:53;;;;;;;8.03;7.23;;;;;;;19.25;83.36;94831.47;4991578;28;20684;-78
2022/09/09 02:01:33;;;;;;;9.00;7.50;;;;;;;19.41;83.02;94858.13;4975207;28;20632;-79
2022/09/09 02:04:05;;;;;;;8.27;7.47;;;;;;;19.28;82.84;94845.88;5002771;28;20185;-79
2022/09/09 02:06:37;;;;;;;8.97;7.80;;;;;;;19.31;82.74;94850.69;5013716;28;20185;-77
2022/09/09 02:09:06;;;;;;;8.80;7.53;;;;;;;19.33;82.84;94864.25;5011585;28;20653;-78
2022/09/09 02:11:34;;;;;;;7.50;6.67;;;;;;;19.28;83.64;94851.84;4995882;28;20201;-79
2022/09/09 02:14:11;;;;;;;9.53;7.50;;;;;;;19.30;82.93;94847.28;4991542;28;20232;-79
2022/09/09 02:16:42;;;;;;;8.50;7.70;;;;;;;18.85;83.13;94775.13;4991677;28;20374;-79
2022/09/09 02:19:16;;;;;;;8.20;7.40;;;;;;;18.76;82.82;94759.69;4991493;28;20629;-78
2022/09/09 02:21:45;;;;;;;9.30;7.80;;;;;;;19.27;83.59;94845.06;4991279;28;20639;-79
2022/09/09 02:24:15;;;;;;;8.10;7.40;;;;;;;19.12;83.44;94820.19;4991779;28;20219;-78
2022/09/09 02:26:45;;;;;;;9.20;7.53;;;;;;;19.18;83.65;94832.44;4991420;28;20388;-79
2022/09/09 02:29:18;;;;;;;11.33;7.67;;;;;;;19.22;83.82;94847.44;4991108;28;20193;-79
2022/09/09 02:31:48;;;;;;;9.60;8.10;;;;;;;19.26;83.06;94853.03;4990968;28;20215;-78
2022/09/09 02:34:19;;;;;;;9.07;7.90;;;;;;;19.32;82.38;94851.47;4990304;28;20220;-78
2022/09/09 02:36:47;;;;;;;11.17;8.17;;;;;;;19.12;82.64;94833.97;4990880;28;20197;-78
2022/09/09 02:39:15;;;;;;;11.43;8.00;;;;;;;19.24;82.90;94858.41;4990896;28;20189;-78
2022/09/09 02:41:43;;;;;;;10.87;7.20;;;;;;;19.16;83.06;94855.94;4990801;28;20202;-79
2022/09/09 02:44:12;;;;;;;8.23;7.23;;;;;;;18.82;83.13;94807.38;4990483;28;20705;-78
2022/09/09 02:46:58;;;;;;;9.33;7.77;;;;;;;19.17;83.22;94864.50;4990480;28;20185;-78
2022/09/09 02:49:35;;;;;;;9.03;7.87;;;;;;;18.78;83.68;94808.72;4990880;28;20193;-81
2022/09/09 02:52:06;;;;;;;9.73;7.53;;;;;;;19.08;83.39;94865.63;4990779;28;20191;-77
2022/09/09 02:54:35;;;;;;;11.00;8.07;;;;;;;19.05;83.84;94852.06;4990171;28;20728;-80
2022/09/09 02:57:09;;;;;;;13.17;7.70;;;;;;;19.04;83.44;94860.00;4990188;28;20232;-79
2022/09/09 02:59:36;;;;;;;10.43;7.80;;;;;;;19.02;83.76;94851.63;4990230;28;20186;-78
2022/09/09 03:02:06;;;;;;;13.00;7.40;;;;;;;19.01;83.81;94863.00;4989896;28;20312;-77
2022/09/09 03:04:33;;;;;;;11.03;7.63;;;;;;;18.21;83.83;94740.41;4990001;28;20208;-78
2022/09/09 03:07:00;;;;;;;9.57;7.63;;;;;;;18.94;84.13;94860.31;4990377;28;20196;-79
2022/09/09 03:09:27;;;;;;;9.07;7.83;;;;;;;18.80;83.99;94841.25;4989548;28;20189;-77
2022/09/09 03:11:54;;;;;;;10.83;7.57;;;;;;;18.91;84.18;94865.91;4990505;28;20260;-78
2022/09/09 03:14:24;;;;;;;8.17;7.43;;;;;;;18.87;84.29;94858.66;4989869;28;20220;-79
2022/09/09 03:16:51;;;;;;;10.23;7.90;;;;;;;18.72;84.05;94843.16;4989931;28;20342;-78
2022/09/09 03:19:20;;;;;;;12.37;8.47;;;;;;;18.76;84.62;94850.38;4990016;28;20193;-78
2022/09/09 03:21:47;;;;;;;11.43;8.53;;;;;;;18.73;84.22;94842.16;4990078;28;20688;-76
2022/09/09 03:24:16;;;;;;;9.13;8.23;;;;;;;18.78;84.58;94852.78;4990080;28;20205;-78
2022/09/09 03:26:45;;;;;;;13.73;7.80;;;;;;;18.47;84.43;94814.97;4989736;28;20197;-79
2022/09/09 03:29:13;;;;;;;8.83;8.03;;;;;;;18.48;85.12;94820.94;4989961;28;20303;-79
2022/09/09 03:31:40;;;;;;;9.07;8.07;;;;;;;18.71;85.27;94851.94;4990178;28;20232;-79
2022/09/09 03:34:07;;;;;;;8.37;7.47;;;;;;;18.42;85.53;94819.91;4990055;28;20232;-78
2022/09/09 03:36:37;;;;;;;10.13;8.30;;;;;;;18.65;85.84;94861.22;4989775;28;20261;-78
2022/09/09 03:39:04;;;;;;;9.27;8.20;;;;;;;18.64;85.80;94856.19;4989607;28;20185;-78
2022/09/09 03:41:33;;;;;;;12.03;8.07;;;;;;;18.45;85.18;94834.28;4989629;28;20204;-77
2022/09/09 03:44:00;;;;;;;10.93;8.57;;;;;;;18.52;84.95;94823.03;4989449;28;20645;-78
2022/09/09 03:46:27;;;;;;;10.53;8.23;;;;;;;18.74;84.59;94852.38;4989733;28;20189;-78
2022/09/09 03:48:54;;;;;;;11.17;8.50;;;;;;;18.69;84.93;94857.28;4972234;28;20258;-78
2022/09/09 03:51:22;;;;;;;9.90;8.27;;;;;;;18.67;84.81;94842.88;4990492;28;20292;-78
2022/09/09 03:53:50;;;;;;;9.67;8.40;;;;;;;18.72;85.46;94863.88;4990814;28;20255;-78
2022/09/09 03:56:17;;;;;;;12.13;8.57;;;;;;;18.69;85.83;94866.81;4989830;28;20224;-78
2022/09/09 03:58:49;;;;;;;9.37;8.47;;;;;;;18.60;86.23;94852.38;4989694;28;20657;-77
2022/09/09 04:01:17;;;;;;;11.00;8.87;;;;;;;18.36;86.13;94817.25;4989707;28;20252;-77
2022/09/09 04:03:45;;;;;;;11.13;8.60;;;;;;;18.58;86.03;94856.94;4989342;28;20763;-79
2022/09/09 04:06:14;;;;;;;10.87;7.83;;;;;;;18.59;85.65;94853.34;4989527;28;20200;-79
2022/09/09 04:08:41;;;;;;;12.90;9.17;;;;;;;18.24;85.76;94801.38;4989516;28;20212;-79
2022/09/09 04:11:10;;;;;;;11.43;9.23;;;;;;;18.37;86.21;94824.03;4989451;28;20197;-78
2022/09/09 04:13:39;;;;;;;12.30;8.90;;;;;;;18.62;86.30;94864.16;4989353;28;20208;-77
2022/09/09 04:16:06;;;;;;;13.20;8.53;;;;;;;18.60;86.43;94866.13;4992841;28;20385;-78
2022/09/09 04:18:34;;;;;;;11.63;8.73;;;;;;;18.38;86.62;94833.41;4992609;28;20201;-78
2022/09/09 04:21:01;;;;;;;10.00;9.00;;;;;;;18.67;85.96;94869.59;4992708;28;20195;-79
2022/09/09 04:23:29;;;;;;;17.13;9.20;;;;;;;18.64;86.83;94861.38;4992989;28;20193;-79
2022/09/09 04:25:58;;;;;;;10.30;8.27;;;;;;;18.61;86.64;94857.38;4975283;28;20641;-76
2022/09/09 04:28:31;;;;;;;10.00;8.30;;;;;;;18.66;86.74;94862.81;4992595;28;20292;-78
2022/09/09 04:31:04;;;;;;;9.70;8.70;;;;;;;18.56;86.39;94855.31;4992178;28;20190;-78
2022/09/09 04:33:31;;;;;;;11.77;8.67;;;;;;;18.73;85.88;94876.66;4992675;28;20197;-77
2022/09/09 04:36:01;;;;;;;11.00;9.97;;;;;;;18.38;85.98;94834.19;4992194;28;20252;-78
2022/09/09 04:38:43;;;;;;;12.70;9.30;;;;;;;18.73;84.98;94862.91;4994418;28;20193;-79
2022/09/09 04:41:11;;;;;;;11.43;9.17;;;;;;;18.74;85.77;94872.31;4992349;28;20201;-79
2022/09/09 04:43:40;;;;;;;14.00;9.27;;;;;;;18.34;86.07;94822.59;4992406;28;20197;-79
2022/09/09 04:46:07;;;;;;;12.63;8.60;;;;;;;18.74;86.02;94875.69;4992062;28;20193;-78
2022/09/09 04:48:34;;;;;;;11.93;9.77;;;;;;;18.76;86.40;94871.09;4992266;28;20196;-78
2022/09/09 04:51:03;;;;;;;9.97;8.60;;;;;;;18.75;86.14;94861.75;4991958;28;20225;-78
2022/09/09 04:53:30;;;;;;;12.17;8.70;;;;;;;18.79;86.35;94855.22;4992148;28;20193;-79
2022/09/09 04:56:04;;;;;;;12.43;9.13;;;;;;;18.85;86.39;94853.66;4992130;28;20228;-78
2022/09/09 04:58:31;;;;;;;11.80;9.33;;;;;;;18.91;86.14;94857.28;4992335;28;20252;-77
2022/09/09 05:01:08;;;;;;;12.07;10.23;;;;;;;18.88;85.74;94848.13;4992282;28;20185;-78
2022/09/09 05:03:35;;;;;;;11.70;9.87;;;;;;;19.16;85.05;94860.31;4991955;28;20193;-78
2022/09/09 05:06:08;;;;;;;14.63;9.90;;;;;;;19.25;84.97;94852.22;4992448;28;20244;-77
2022/09/09 05:08:35;;;;;;;14.57;9.80;;;;;;;19.30;85.38;94831.72;4992070;28;20292;-79
2022/09/09 05:11:02;;;;;;;16.83;10.83;;;;;;;19.40;84.40;94826.22;4991984;28;20290;-79
2022/09/09 05:13:32;;;;;;;18.10;10.97;;;;;;;19.55;84.15;94842.47;4992326;28;20580;-79
2022/09/09 05:15:59;;;;;;;14.17;10.53;;;;;;;19.69;83.18;94858.97;4991996;28;20245;-78
2022/09/09 05:18:28;;;;;;;14.37;10.03;;;;;;;19.83;81.63;94849.47;4993975;28;20244;-78
2022/09/09 05:21:04;;;;;;;11.40;10.20;;;;;;;19.90;80.48;94810.56;4992291;28;20201;-79
2022/09/09 05:23:31;;;;;;;12.53;9.90;;;;;;;20.39;79.16;94844.16;4991829;28;20189;-79
2022/09/09 05:25:59;;;;;;;11.80;9.87;;;;;;;20.55;77.83;94843.00;4991252;28;20217;-78
2022/09/09 05:28:26;;;;;;;12.73;9.60;;;;;;;20.64;76.70;94849.66;4991839;28;20193;-79
2022/09/09 05:31:00;;;;;;;13.47;10.40;;;;;;;19.82;75.76;94704.31;4991656;28;20252;-78
2022/09/09 05:33:28;;;;;;;11.43;10.13;;;;;;;20.97;76.39;94857.50;4991773;28;20197;-79
2022/09/09 05:35:59;;;;;;;11.27;9.35;;;;;;;21.04;75.65;94827.13;4991421;28;20232;-79
2022/09/09 05:38:26;;;;;;;15.13;9.95;;;;;;;21.36;74.62;94845.56;4991664;28;20189;-77
2022/09/09 05:40:53;;;;;;;16.80;9.98;;;;;;;21.58;73.73;94848.75;4991282;28;20629;-78
2022/09/09 05:43:20;;;;;;;15.85;9.73;;;;;;;21.65;70.89;94859.97;4991135;28;20185;-78
2022/09/09 05:45:48;;;;;;;12.63;9.88;;;;;;;21.76;71.13;94859.38;4991084;28;20582;-79
2022/09/09 05:48:15;;;;;;;13.20;10.18;;;;;;;21.81;70.82;94856.16;4991110;28;20268;-78
2022/09/09 05:50:45;;;;;;;14.00;9.27;;;;;;;21.99;70.75;94865.94;4991592;28;20283;-78
2022/09/09 05:53:12;;;;;;;17.65;11.02;;;;;;;21.95;70.15;94862.94;4991114;28;20641;-78
2022/09/09 05:55:38;;;;;;;12.63;9.30;;;;;;;22.05;69.76;94860.69;4991073;28;20711;-78
2022/09/09 05:58:05;;;;;;;16.05;10.73;;;;;;;22.03;69.94;94854.91;4991027;28;20197;-79
2022/09/09 06:00:32;;;;;;;20.08;10.90;;;;;;;21.87;69.44;94860.53;4992168;28;20189;-79
2022/09/09 06:02:59;;;;;;;19.67;10.50;;;;;;;21.85;69.91;94866.94;4990761;28;20228;-80
2022/09/09 06:05:28;;;;;;;12.30;10.18;;;;;;;22.11;69.25;94874.72;4991442;28;20196;-79
2022/09/09 06:07:56;;;;;;;13.23;9.32;;;;;;;22.28;69.26;94878.50;4991304;28;20197;-78
2022/09/09 06:10:23;;;;;;;16.05;9.73;;;;;;;22.46;69.55;94880.44;4991507;28;20185;-79
2022/09/09 06:12:53;;;;;;;16.83;11.45;;;;;;;22.59;67.45;94881.41;4991251;28;20189;-78
2022/09/09 06:15:20;;;;;;;16.05;11.35;;;;;;;22.50;67.08;94879.03;4991582;28;20243;-77
2022/09/09 06:17:47;;;;;;;15.85;10.82;;;;;;;22.57;66.70;94873.78;4991432;28;20894;-78
2022/09/09 06:20:14;;;;;;;20.02;10.40;;;;;;;22.59;66.65;94878.81;4991430;28;20189;-79
2022/09/09 06:22:41;;;;;;;13.32;11.18;;;;;;;22.51;66.96;94872.81;4991266;28;20189;-79
2022/09/09 06:25:10;;;;;;;10.70;9.45;;;;;;;22.56;65.63;94853.94;4990754;28;20193;-77
2022/09/09 06:27:37;;;;;;;11.95;9.95;;;;;;;22.77;65.81;94876.31;4991149;28;20190;-77
2022/09/09 06:30:04;;;;;;;13.20;10.38;;;;;;;22.83;65.65;94879.88;4991131;28;20680;-77
2022/09/09 06:32:34;;;;;;;14.07;10.13;;;;;;;22.78;65.49;94847.41;4991286;28;20195;-78
2022/09/09 06:35:02;;;;;;;18.88;10.45;;;;;;;22.88;64.92;94870.41;4990999;28;20200;-78
2022/09/09 06:37:31;;;;;;;17.98;10.60;;;;;;;22.98;64.71;94864.78;4990749;28;20236;-78
2022/09/09 06:39:58;;;;;;;14.38;11.57;;;;;;;23.06;64.71;94861.91;4990496;28;20189;-78
2022/09/09 06:42:26;;;;;;;14.55;9.55;;;;;;;23.25;64.74;94865.41;4990735;28;20259;-79
2022/09/09 06:44:53;;;;;;;14.02;10.23;;;;;;;23.46;63.68;94866.84;4990830;28;20203;-77
2022/09/09 06:47:20;;;;;;;16.90;10.90;;;;;;;23.63;63.67;94861.88;4990785;28;20189;-78
2022/09/09 06:49:47;;;;;;;13.18;9.50;;;;;;;23.75;63.52;94863.63;4990572;28;20691;-77
2022/09/09 06:52:17;;;;;;;12.80;10.55;;;;;;;23.84;62.97;94869.38;4990726;28;20574;-78
2022/09/09 06:54:46;;;;;;;18.75;10.88;;;;;;;23.95;62.11;94873.84;4990127;28;20197;-77
2022/09/09 06:57:13;;;;;;;21.38;10.50;;;;;;;24.11;62.42;94882.16;4990726;28;20232;-78
2022/09/09 06:59:42;;;;;;;10.85;9.70;;;;;;;24.23;61.49;94875.19;4990657;28;20227;-78
2022/09/09 07:02:09;;;;;;;22.15;11.45;;;;;;;24.13;60.08;94878.28;4990467;28;20197;-78
2022/09/09 07:04:36;;;;;;;14.68;10.18;;;;;;;24.26;60.20;94882.59;4991137;28;20299;-77
2022/09/09 07:07:03;;;;;;;20.95;9.07;;;;;;;24.44;59.87;94887.06;4990050;28;20204;-78
2022/09/09 07:09:31;;;;;;;12.52;10.07;;;;;;;24.53;59.73;94888.38;4990377;28;20299;-78
2022/09/09 07:11:59;;;;;;;12.05;8.75;;;;;;;24.56;60.61;94871.41;4990059;28;20199;-77
2022/09/09 07:14:26;;;;;;;15.40;8.80;;;;;;;24.63;61.04;94838.94;4990736;28;20190;-78
2022/09/09 07:16:55;;;;;;;13.80;9.43;;;;;;;25.12;57.61;94881.56;4990215;28;20235;-78
2022/09/09 07:19:22;;;;;;;14.90;9.40;;;;;;;25.33;58.84;94879.47;4990454;28;20193;-79
2022/09/09 07:21:49;;;;;;;13.80;9.93;;;;;;;25.47;55.86;94878.22;4989997;28;20645;-78
2022/09/09 07:24:16;;;;;;;15.88;10.20;;;;;;;25.45;56.47;94867.19;4990527;28;20288;-79
2022/09/09 07:26:43;;;;;;;13.15;9.00;;;;;;;25.60;56.23;94872.78;4989715;28;20729;-78
2022/09/09 07:29:13;;;;;;;13.90;8.57;;;;;;;25.70;56.69;94848.66;4990338;28;20284;-78
2022/09/09 07:31:40;;;;;;;12.18;8.10;;;;;;;26.05;55.61;94864.38;4990031;28;20197;-78
2022/09/09 07:34:09;;;;;;;11.63;7.78;;;;;;;26.25;56.25;94862.19;4990360;28;20203;-78
2022/09/09 07:36:37;;;;;;;11.43;8.25;;;;;;;26.47;54.94;94858.97;4989593;28;20235;-77
2022/09/09 07:39:07;;;;;;;13.50;8.48;;;;;;;26.42;54.86;94820.28;4990311;28;20217;-78
2022/09/09 07:41:35;;;;;;;9.77;8.07;;;;;;;26.83;53.09;94865.69;4989713;28;20192;-79
2022/09/09 07:44:06;;;;;;;13.15;7.72;;;;;;;27.01;52.79;94868.13;4989826;28;20231;-78
2022/09/09 07:46:33;;;;;;;15.68;8.38;;;;;;;26.90;52.92;94868.97;4989489;28;20193;-79
2022/09/09 07:49:00;;;;;;;10.50;7.50;;;;;;;26.96;52.59;94856.75;4992103;28;20199;-78
2022/09/09 07:51:32;;;;;;;10.63;7.25;;;;;;;27.26;52.30;94875.66;4993258;28;20212;-77
2022/09/09 07:54:01;;;;;;;12.27;6.95;;;;;;;27.29;51.54;94873.59;4993435;28;20661;-77
2022/09/09 07:56:30;;;;;;;8.88;7.45;;;;;;;27.24;51.72;94840.16;4994083;28;20249;-79
2022/09/09 07:58:58;;;;;;;9.75;7.03;;;;;;;27.57;50.09;94876.16;4993864;28;20307;-78
2022/09/09 08:01:27;;;;;;;10.82;6.93;;;;;;;27.68;50.69;94866.63;4994139;28;20185;-78
2022/09/09 08:03:59;;;;;;;12.10;8.00;;;;;;;27.78;50.11;94861.53;4993518;28;20681;-79
2022/09/09 08:06:30;;;;;;;12.18;8.15;;;;;;;27.92;48.92;94873.28;4993582;28;20248;-78
2022/09/09 08:08:57;;;;;;;8.63;7.47;;;;;;;27.93;49.43;94872.25;4993332;28;20251;-77
2022/09/09 08:11:26;;;;;;;11.95;7.70;;;;;;;27.88;49.25;94874.81;4994287;28;20207;-78
2022/09/09 08:13:54;;;;;;;8.57;6.22;;;;;;;27.78;49.58;94832.63;4993674;28;20196;-79
2022/09/09 08:16:23;;;;;;;11.55;7.00;;;;;;;27.91;48.93;94839.38;4993616;28;20303;-77
2022/09/09 08:18:51;;;;;;;10.63;6.97;;;;;;;28.07;49.30;94854.31;4993297;28;20197;-78
2022/09/09 08:21:21;;;;;;;8.43;5.97;;;;;;;28.15;48.26;94869.69;4994427;28;20235;-78
2022/09/09 08:23:52;;;;;;;9.73;6.60;;;;;;;28.19;48.42;94876.03;5008607;28;20184;-78
2022/09/09 08:26:21;;;;;;;10.30;6.65;;;;;;;28.20;49.21;94872.38;5017557;28;20193;-78
2022/09/09 08:28:51;;;;;;;11.05;7.13;;;;;;;28.23;48.68;94863.19;5016826;28;20241;-79
2022/09/09 08:31:20;;;;;;;6.90;6.25;;;;;;;28.24;48.88;94862.16;5007731;28;20287;-77
2022/09/09 08:33:47;;;;;;;9.40;6.57;;;;;;;28.15;49.30;94855.72;4993427;28;20716;-77
2022/09/09 08:36:16;;;;;;;11.80;6.57;;;;;;;28.21;49.13;94860.81;4993919;28;20231;-78
2022/09/09 08:38:45;;;;;;;11.23;7.00;;;;;;;28.23;48.37;94865.81;4993248;28;20290;-77
2022/09/09 08:41:36;;;;;;;9.18;6.25;;;;;;;27.98;48.24;94863.66;4992559;28;20236;-77
2022/09/09 08:44:08;;;;;;;11.30;5.82;;;;;;;27.99;48.41;94854.72;4992310;28;20215;-78
2022/09/09 08:46:45;;;;;;;8.13;5.85;;;;;;;27.90;48.81;94846.47;4993153;28;20246;-78
2022/09/09 08:49:27;;;;;;;9.70;5.93;;;;;;;27.90;49.07;94840.41;4993126;28;20192;-78
2022/09/09 08:51:57;;;;;;;8.18;5.32;;;;;;;27.92;49.49;94852.25;4992518;28;20885;-78
2022/09/09 08:54:24;;;;;;;9.30;6.30;;;;;;;27.99;49.01;94852.91;4992712;28;20188;-78
2022/09/09 08:56:53;;;;;;;12.02;6.22;;;;;;;27.94;49.11;94834.44;4991915;28;20271;-78
2022/09/09 08:59:20;;;;;;;10.00;6.60;;;;;;;28.07;48.83;94843.00;4992137;28;20207;-77
2022/09/09 09:02:01;;;;;;;8.95;5.63;;;;;;;27.88;49.78;94853.78;4992273;28;20185;-77
2022/09/09 09:04:40;;;;;;;6.75;5.40;;;;;;;27.93;49.79;94856.47;4992406;28;20212;-77
2022/09/09 09:07:20;;;;;;;6.35;5.38;;;;;;;28.04;49.44;94849.53;4991869;28;20612;-78
2022/09/09 09:09:58;;;;;;;7.45;5.72;;;;;;;27.98;48.12;94837.38;4992345;28;20195;-78
2022/09/09 09:12:30;;;;;;;10.38;5.43;;;;;;;28.07;48.86;94848.28;4991821;28;20197;-80
2022/09/09 09:14:58;;;;;;;8.98;5.28;;;;;;;28.09;48.89;94841.72;4992414;28;20232;-77
2022/09/09 09:17:31;;;;;;;8.70;5.07;;;;;;;28.14;48.73;94839.13;4993648;28;20221;-78
2022/09/09 09:19:59;;;;;;;8.77;5.63;;;;;;;28.21;48.00;94852.13;4992722;28;20192;-78
2022/09/09 09:22:36;;;;;;;9.55;5.50;;;;;;;28.20;48.68;94850.53;4992198;28;20280;-77
2022/09/09 09:25:12;;;;;;;6.07;5.47;;;;;;;28.16;48.77;94839.72;4992094;28;20269;-78
2022/09/09 09:27:49;;;;;;;9.05;5.93;;;;;;;28.09;48.52;94831.19;4991943;28;20199;-77
2022/09/09 09:30:19;;;;;;;9.10;4.93;;;;;;;28.17;49.09;94843.91;4992075;28;20201;-78
2022/09/09 09:32:54;;;;;;;7.15;4.78;;;;;;;28.29;48.44;94853.53;4991843;28;20193;-78
2022/09/09 09:35:21;;;;;;;10.30;5.82;;;;;;;28.29;48.17;94851.69;4991835;28;20192;-78
2022/09/09 09:37:48;;;;;;;7.70;4.95;;;;;;;28.32;47.79;94845.13;4992600;28;20224;-77
2022/09/09 09:40:18;;;;;;;7.05;5.20;;;;;;;28.34;47.75;94841.25;4992262;28;20193;-77
2022/09/09 09:42:55;;;;;;;8.65;5.82;;;;;;;28.36;47.81;94835.75;4992663;28;20275;-80
2022/09/09 09:45:31;;;;;;;9.40;5.68;;;;;;;28.26;48.29;94816.16;4992946;28;20208;-78
2022/09/09 09:48:04;;;;;;;10.60;6.85;;;;;;;28.18;47.15;94800.78;4992255;28;20181;-77
2022/09/09 09:50:32;;;;;;;6.78;4.97;;;;;;;28.31;47.18;94818.03;4974803;28;20640;-79
2022/09/09 09:53:01;;;;;;;9.07;5.55;;;;;;;28.05;47.13;94781.97;4991665;28;20278;-78
2022/09/09 09:55:30;;;;;;;5.43;4.70;;;;;;;28.30;47.55;94831.44;4991806;28;20565;-77
2022/09/09 09:58:04;;;;;;;7.22;4.65;;;;;;;28.32;47.40;94824.09;4991926;28;20224;-78
2022/09/09 10:00:32;;;;;;;14.32;5.35;;;;;;;28.26;47.44;94810.88;4973816;28;20652;-78
2022/09/09 10:03:00;;;;;;;7.05;4.32;;;;;;;28.32;47.71;94821.47;4991383;28;20196;-79
2022/09/09 10:05:29;;;;;;;6.38;4.60;;;;;;;28.29;47.60;94820.13;4991081;28;20639;-77
2022/09/09 10:08:05;;;;;;;12.98;6.10;;;;;;;28.23;47.83;94821.09;4991821;28;20200;-77
2022/09/09 10:10:48;;;;;;;6.80;4.93;;;;;;;28.24;47.82;94828.75;4991804;28;20246;-79
2022/09/09 10:13:23;;;;;;;9.20;5.30;;;;;;;28.22;48.49;94833.47;4990505;28;20603;-78
2022/09/09 10:16:07;;;;;;;14.40;4.93;;;;;;;27.91;49.67;94798.09;4991721;28;20228;-78
2022/09/09 10:18:55;;;;;;;9.13;5.35;;;;;;;28.03;50.17;94829.53;4991348;28;20193;-78
2022/09/09 10:21:33;;;;;;;10.20;5.32;;;;;;;27.96;50.57;94834.97;4991770;28;20231;-79
2022/09/09 10:24:22;;;;;;;6.72;5.10;;;;;;;27.92;51.22;94836.50;4991210;28;20661;-79
2022/09/09 10:26:58;;;;;;;7.32;5.20;;;;;;;27.91;50.65;94834.13;4991283;28;20227;-77
2022/09/09 10:29:44;;;;;;;11.27;5.50;;;;;;;27.86;50.73;94832.22;4991542;28;20186;-78
2022/09/09 10:32:32;;;;;;;9.48;5.57;;;;;;;27.83;50.73;94829.25;4990975;28;20209;-79
2022/09/09 10:35:05;;;;;;;8.30;5.60;;;;;;;27.80;49.50;94830.53;4991156;28;20748;-78
2022/09/09 10:37:44;;;;;;;9.48;5.63;;;;;;;27.72;50.02;94833.53;4991449;28;20247;-78
2022/09/09 10:40:30;;;;;;;12.73;5.85;;;;;;;27.62;51.09;94839.44;4991029;28;20212;-78
2022/09/09 10:43:08;;;;;;;7.25;5.53;;;;;;;27.29;51.47;94795.63;4990878;28;20193;-77
2022/09/09 10:45:46;;;;;;;11.90;5.70;;;;;;;27.61;50.64;94835.22;4991133;28;20201;-77
2022/09/09 10:48:31;;;;;;;11.13;6.68;;;;;;;27.60;51.37;94840.75;4991005;28;20188;-78
2022/09/09 10:51:14;;;;;;;11.30;6.18;;;;;;;27.36;51.44;94808.56;4990726;28;20690;-78
2022/09/09 10:53:54;;;;;;;11.98;5.63;;;;;;;27.39;51.34;94827.28;4990641;28;20197;-78
2022/09/09 10:56:25;;;;;;;8.68;6.25;;;;;;;27.52;51.95;94847.19;4990698;28;20189;-79
2022/09/09 10:58:56;;;;;;;8.52;6.63;;;;;;;27.50;52.32;94836.09;4991385;28;20193;-78
2022/09/09 11:01:29;;;;;;;9.70;6.05;;;;;;;27.53;51.96;94835.63;4995228;28;20189;-79
2022/09/09 11:04:02;;;;;;;7.00;6.30;;;;;;;27.47;52.03;94828.72;4991868;28;20204;-77
2022/09/09 11:06:36;;;;;;;12.63;7.13;;;;;;;27.38;52.04;94823.06;4991379;28;20201;-78
2022/09/09 11:09:05;;;;;;;10.85;6.55;;;;;;;27.27;52.71;94808.19;4990472;28;20197;-77
2022/09/09 11:11:38;;;;;;;7.85;5.70;;;;;;;27.41;52.82;94835.72;4990829;28;20197;-78
2022/09/09 11:14:13;;;;;;;9.52;6.68;;;;;;;27.11;52.88;94794.00;4991351;28;20873;-78
2022/09/09 11:16:47;;;;;;;10.45;5.88;;;;;;;27.36;53.48;94826.97;4990501;28;20234;-78
2022/09/09 11:19:22;;;;;;;10.73;7.20;;;;;;;27.07;53.94;94792.84;4990254;28;20279;-81
2022/09/09 11:21:51;;;;;;;13.68;7.05;;;;;;;27.22;53.80;94818.59;4994776;28;20185;-78
2022/09/09 11:24:24;;;;;;;12.45;6.28;;;;;;;27.23;54.10;94812.31;4999851;28;20205;-81
2022/09/09 11:26:55;;;;;;;18.05;7.03;;;;;;;27.23;54.83;94813.09;5001699;28;20287;-79
2022/09/09 11:29:55;;;;;;;12.38;6.22;;;;;;;27.20;55.22;94797.03;5001558;28;20273;-77
2022/09/09 11:32:49;;;;;;;11.93;6.70;;;;;;;27.26;55.35;94786.38;4988912;28;20196;-77
2022/09/09 11:35:32;;;;;;;9.15;6.88;;;;;;;27.29;55.59;94781.66;4999732;28;20276;-78
2022/09/09 11:38:19;;;;;;;13.13;6.32;;;;;;;27.39;55.69;94777.38;4996503;28;20603;-77
2022/09/09 11:40:47;;;;;;;11.70;6.97;;;;;;;27.33;56.00;94761.78;4994644;28;20196;-78
2022/09/09 11:43:17;;;;;;;14.30;7.03;;;;;;;27.43;56.00;94765.34;4994536;28;20644;-76
2022/09/09 11:45:55;;;;;;;9.90;6.07;;;;;;;27.50;56.39;94757.28;4995516;28;20216;-77
2022/09/09 11:48:30;;;;;;;9.45;7.05;;;;;;;27.51;56.71;94743.94;4994884;28;20609;-78